Time,TemperatureF,DewpointF,PressureIn,WindDirection,WindDirectionDegrees,WindSpeedMPH,WindSpeedGustMPH,Humidity,HourlyPrecipIn,Conditions,Clouds,dailyrainin,SoftwareType,DateUTC
2013-10-01 00:01:00,59.9,58.2,30.07,SSW,203,0.0,0.0,94,0.00,,---,0.00,VWS V14.01,2013-10-01 04:01:00,
2013-10-01 00:06:00,59.7,58.0,30.07,SSW,203,0.0,0.0,94,0.00,,---,0.00,VWS V14.01,2013-10-01 04:06:00,
2013-10-01 00:11:00,59.7,58.0,30.07,SSW,203,0.0,0.0,94,0.00,,---,0.00,VWS V14.01,2013-10-01 04:11:00,
2013-10-01 00:16:00,59.6,57.9,30.07,SSW,203,0.0,0.0,94,0.00,,---,0.00,VWS V14.01,2013-10-01 04:16:00,
2013-10-01 00:21:00,59.6,57.9,30.07,SSW,203,0.0,0.0,94,0.00,,---,0.00,VWS V14.01,2013-10-01 04:21:00,
2013-10-01 00:26:00,59.5,57.8,30.07,SSW,203,0.0,0.0,94,0.00,,---,0.00,VWS V14.01,2013-10-01 04:26:00,
2013-10-01 00:31:00,59.4,57.7,30.07,SSW,203,0.0,0.0,94,0.00,,---,0.00,VWS V14.01,2013-10-01 04:31:00,
2013-10-01 00:36:00,59.3,57.6,30.07,SSW,203,0.0,0.0,94,0.00,,---,0.00,VWS V14.01,2013-10-01 04:36:00,
2013-10-01 00:41:00,59.3,57.6,30.07,SSW,203,0.0,0.0,94,0.00,,---,0.00,VWS V14.01,2013-10-01 04:41:00,
2013-10-01 00:46:00,59.2,57.5,30.07,SSW,203,0.0,0.0,94,0.00,,---,0.00,VWS V14.01,2013-10-01 04:46:00,
2013-10-01 00:51:00,59.2,57.5,30.07,SSW,203,0.0,0.0,94,0.00,,---,0.00,VWS V14.01,2013-10-01 04:51:00,
2013-10-01 00:56:00,59.2,57.8,30.07,SSW,203,0.0,0.0,95,0.00,,---,0.00,VWS V14.01,2013-10-01 04:56:00,
2013-10-01 01:01:00,59.1,57.4,30.07,SSW,203,0.0,0.0,94,0.00,,---,0.00,VWS V14.01,2013-10-01 05:01:00,
2013-10-01 01:06:00,59.1,57.7,30.07,SSW,203,0.0,0.0,95,0.00,,---,0.00,VWS V14.01,2013-10-01 05:06:00,
2013-10-01 01:11:00,59.1,57.7,30.07,SSW,203,0.0,0.0,95,0.00,,---,0.00,VWS V14.01,2013-10-01 05:11:00,
2013-10-01 01:16:00,59.1,57.7,30.07,SSW,203,0.0,0.0,95,0.00,,---,0.00,VWS V14.01,2013-10-01 05:16:00,
2013-10-01 01:21:00,59.0,57.6,30.07,SSW,203,0.0,0.0,95,0.00,,---,0.00,VWS V14.01,2013-10-01 05:21:00,
2013-10-01 01:26:00,59.0,57.6,30.07,SSW,203,0.0,0.0,95,0.00,,---,0.00,VWS V14.01,2013-10-01 05:26:00,
2013-10-01 01:31:00,59.0,57.6,30.06,SSW,203,0.0,0.0,95,0.00,,---,0.00,VWS V14.01,2013-10-01 05:31:00,
2013-10-01 01:36:00,59.0,57.6,30.06,SSW,203,0.0,0.0,95,0.00,,---,0.00,VWS V14.01,2013-10-01 05:36:00,
2013-10-01 01:41:00,58.9,57.5,30.06,SSW,203,0.0,0.0,95,0.00,,---,0.00,VWS V14.01,2013-10-01 05:41:00,
2013-10-01 01:46:00,58.8,57.4,30.06,SSW,203,0.0,0.0,95,0.00,,---,0.00,VWS V14.01,2013-10-01 05:46:00,
2013-10-01 01:51:00,58.7,57.3,30.06,SSW,203,0.0,0.0,95,0.00,,---,0.00,VWS V14.01,2013-10-01 05:51:00,
2013-10-01 01:56:00,58.6,57.2,30.06,SSW,203,0.0,0.0,95,0.00,,---,0.00,VWS V14.01,2013-10-01 05:56:00,
2013-10-01 02:01:00,58.6,57.2,30.06,SSW,203,0.0,0.0,95,0.00,,---,0.00,VWS V14.01,2013-10-01 06:01:00,
2013-10-01 02:06:00,58.6,57.2,30.06,SSW,203,0.0,0.0,95,0.00,,---,0.00,VWS V14.01,2013-10-01 06:06:00,
2013-10-01 02:11:00,58.6,57.2,30.07,SSW,203,0.0,0.0,95,0.00,,---,0.00,VWS V14.01,2013-10-01 06:11:00,
2013-10-01 02:16:00,58.5,57.1,30.07,SSW,203,0.0,0.0,95,0.00,,---,0.00,VWS V14.01,2013-10-01 06:16:00,
2013-10-01 02:21:00,58.4,57.0,30.07,SSW,203,0.0,0.0,95,0.00,,---,0.00,VWS V14.01,2013-10-01 06:21:00,
2013-10-01 02:26:00,58.4,57.0,30.07,SSW,203,0.0,0.0,95,0.00,,---,0.00,VWS V14.01,2013-10-01 06:26:00,
2013-10-01 02:31:00,58.3,56.9,30.07,SSW,203,0.0,0.0,95,0.00,,---,0.00,VWS V14.01,2013-10-01 06:31:00,
2013-10-01 02:36:00,58.2,56.8,30.07,SSW,203,0.0,0.0,95,0.00,,---,0.00,VWS V14.01,2013-10-01 06:36:00,
2013-10-01 02:41:00,58.1,56.7,30.07,SSW,203,0.0,0.0,95,0.00,,---,0.00,VWS V14.01,2013-10-01 06:41:00,
2013-10-01 02:46:00,58.0,56.6,30.07,SSW,204,0.0,0.0,95,0.00,,---,0.00,VWS V14.01,2013-10-01 06:46:00,
2013-10-01 02:51:00,58.0,56.6,30.07,SSW,204,0.0,0.0,95,0.00,,---,0.00,VWS V14.01,2013-10-01 06:51:00,
2013-10-01 02:56:00,57.9,56.5,30.07,SSW,204,0.0,0.0,95,0.00,,---,0.00,VWS V14.01,2013-10-01 06:56:00,
2013-10-01 03:01:00,57.8,56.4,30.08,SSW,204,0.0,0.0,95,0.00,,---,0.00,VWS V14.01,2013-10-01 07:01:00,
2013-10-01 03:06:00,57.7,56.3,30.07,SSW,204,0.0,0.0,95,0.00,,---,0.00,VWS V14.01,2013-10-01 07:06:00,
2013-10-01 03:11:00,57.6,56.2,30.08,SSW,204,0.0,0.0,95,0.00,,---,0.00,VWS V14.01,2013-10-01 07:11:00,
2013-10-01 03:16:00,57.5,56.1,30.08,SSW,204,0.0,0.0,95,0.00,,---,0.00,VWS V14.01,2013-10-01 07:16:00,
2013-10-01 03:21:00,57.4,56.0,30.08,SSW,204,0.0,0.0,95,0.00,,---,0.00,VWS V14.01,2013-10-01 07:21:00,
2013-10-01 03:26:00,57.4,56.0,30.08,SSW,204,0.0,0.0,95,0.00,,---,0.00,VWS V14.01,2013-10-01 07:26:00,
2013-10-01 03:31:00,57.3,55.9,30.08,SSW,204,0.0,0.0,95,0.00,,---,0.00,VWS V14.01,2013-10-01 07:31:00,
2013-10-01 03:36:00,57.2,55.8,30.08,SSW,204,0.0,0.0,95,0.00,,---,0.00,VWS V14.01,2013-10-01 07:36:00,
2013-10-01 03:41:00,57.1,55.7,30.08,SSW,204,0.0,0.0,95,0.00,,---,0.00,VWS V14.01,2013-10-01 07:41:00,
2013-10-01 03:46:00,57.1,55.7,30.08,SSW,204,0.0,0.0,95,0.00,,---,0.00,VWS V14.01,2013-10-01 07:46:00,
2013-10-01 03:51:00,57.1,55.7,30.08,SSW,204,0.0,0.0,95,0.00,,---,0.00,VWS V14.01,2013-10-01 07:51:00,
2013-10-01 03:57:00,57.3,56.2,30.08,SSW,203,0.0,0.0,96,0.00,,---,0.00,VWS V14.01,2013-10-01 07:57:00,
2013-10-01 04:02:00,57.3,56.2,30.08,SSW,203,0.0,0.0,96,0.00,,---,0.00,VWS V14.01,2013-10-01 08:02:00,
2013-10-01 04:07:00,57.4,56.3,30.08,SSW,203,0.0,0.0,96,0.00,,---,0.00,VWS V14.01,2013-10-01 08:07:00,
2013-10-01 04:12:00,57.4,56.3,30.08,SSW,203,0.0,0.0,96,0.00,,---,0.00,VWS V14.01,2013-10-01 08:12:00,
2013-10-01 04:17:00,57.5,56.4,30.08,SSW,203,0.0,0.0,96,0.00,,---,0.00,VWS V14.01,2013-10-01 08:17:00,
2013-10-01 04:22:00,57.7,56.6,30.08,SSW,203,0.0,0.0,96,0.00,,---,0.00,VWS V14.01,2013-10-01 08:22:00,
2013-10-01 04:27:00,58.2,57.1,30.08,SSW,203,0.0,0.0,96,0.00,,---,0.00,VWS V14.01,2013-10-01 08:27:00,
2013-10-01 04:32:00,58.5,57.4,30.08,SSW,203,0.0,0.0,96,0.00,,---,0.00,VWS V14.01,2013-10-01 08:32:00,
2013-10-01 04:37:00,58.6,57.5,30.09,SE,134,0.0,0.0,96,0.00,,---,0.00,VWS V14.01,2013-10-01 08:37:00,
2013-10-01 04:42:00,58.5,57.4,30.09,SE,134,0.0,0.0,96,0.00,,---,0.00,VWS V14.01,2013-10-01 08:42:00,
2013-10-01 04:47:00,58.4,57.3,30.09,SE,134,0.0,0.0,96,0.00,,---,0.00,VWS V14.01,2013-10-01 08:47:00,
2013-10-01 04:52:00,58.4,57.3,30.09,SE,134,0.0,0.0,96,0.00,,---,0.00,VWS V14.01,2013-10-01 08:52:00,
2013-10-01 04:57:00,58.3,56.9,30.10,SE,134,0.0,0.0,95,0.00,,---,0.00,VWS V14.01,2013-10-01 08:57:00,
2013-10-01 05:02:00,58.3,56.9,30.10,SE,134,0.0,0.0,95,0.00,,---,0.00,VWS V14.01,2013-10-01 09:02:00,
2013-10-01 05:07:00,58.3,56.9,30.10,SE,134,0.0,0.0,95,0.00,,---,0.00,VWS V14.01,2013-10-01 09:07:00,
2013-10-01 05:12:00,58.4,57.0,30.10,SE,134,0.0,0.0,95,0.00,,---,0.00,VWS V14.01,2013-10-01 09:12:00,
2013-10-01 05:17:00,58.4,57.3,30.10,SE,134,0.0,0.0,96,0.00,,---,0.00,VWS V14.01,2013-10-01 09:17:00,
2013-10-01 05:22:00,58.5,57.4,30.10,SE,134,0.0,0.0,96,0.00,,---,0.00,VWS V14.01,2013-10-01 09:22:00,
2013-10-01 05:27:00,58.6,57.5,30.10,SE,134,0.0,0.0,96,0.00,,---,0.00,VWS V14.01,2013-10-01 09:27:00,
2013-10-01 05:32:00,58.7,57.6,30.10,SE,134,0.0,0.0,96,0.00,,---,0.00,VWS V14.01,2013-10-01 09:32:00,
2013-10-01 05:37:00,58.8,57.7,30.11,SE,134,0.0,0.0,96,0.00,,---,0.00,VWS V14.01,2013-10-01 09:37:00,
2013-10-01 05:42:00,58.8,57.7,30.11,SE,134,0.0,0.0,96,0.00,,---,0.00,VWS V14.01,2013-10-01 09:42:00,
2013-10-01 05:47:00,58.9,57.8,30.11,SE,134,0.0,0.0,96,0.00,,---,0.00,VWS V14.01,2013-10-01 09:47:00,
2013-10-01 05:52:00,58.9,57.8,30.11,SE,134,0.0,0.0,96,0.00,,---,0.00,VWS V14.01,2013-10-01 09:52:00,
2013-10-01 05:57:00,59.0,57.9,30.11,SE,134,0.0,0.0,96,0.00,,---,0.00,VWS V14.01,2013-10-01 09:57:00,
2013-10-01 06:02:00,59.0,57.9,30.11,SE,134,0.0,0.0,96,0.00,,---,0.00,VWS V14.01,2013-10-01 10:02:00,
2013-10-01 06:07:00,59.1,58.0,30.11,SE,134,0.0,0.0,96,0.00,,---,0.00,VWS V14.01,2013-10-01 10:07:00,
2013-10-01 06:12:00,59.2,58.1,30.11,SE,134,0.0,0.0,96,0.00,,---,0.00,VWS V14.01,2013-10-01 10:12:00,
2013-10-01 06:17:00,59.3,58.2,30.11,SE,134,0.0,0.0,96,0.00,,---,0.00,VWS V14.01,2013-10-01 10:17:00,
2013-10-01 06:22:00,59.3,58.2,30.11,SE,134,0.0,0.0,96,0.00,,---,0.00,VWS V14.01,2013-10-01 10:22:00,
2013-10-01 06:27:00,59.4,58.3,30.11,SE,134,0.0,0.0,96,0.00,,---,0.00,VWS V14.01,2013-10-01 10:27:00,
2013-10-01 06:32:00,59.5,58.4,30.12,SE,134,0.0,0.0,96,0.00,,---,0.00,VWS V14.01,2013-10-01 10:32:00,
2013-10-01 06:37:00,59.6,58.5,30.12,SE,134,0.0,0.0,96,0.00,,---,0.00,VWS V14.01,2013-10-01 10:37:00,
2013-10-01 06:42:00,59.6,58.5,30.12,SE,134,0.0,0.0,96,0.00,,---,0.00,VWS V14.01,2013-10-01 10:42:00,
2013-10-01 06:47:00,59.7,58.6,30.12,SE,134,0.0,0.0,96,0.00,,---,0.00,VWS V14.01,2013-10-01 10:47:00,
2013-10-01 06:52:00,59.8,58.7,30.12,SE,134,0.0,0.0,96,0.00,,---,0.00,VWS V14.01,2013-10-01 10:52:00,
2013-10-01 06:57:00,59.8,58.7,30.13,SE,134,0.0,0.0,96,0.00,,---,0.00,VWS V14.01,2013-10-01 10:57:00,
2013-10-01 07:02:00,59.8,58.7,30.13,SE,134,0.0,0.0,96,0.00,,---,0.00,VWS V14.01,2013-10-01 11:02:00,
2013-10-01 07:07:00,59.9,58.8,30.13,SE,134,0.0,0.0,96,0.00,,---,0.00,VWS V14.01,2013-10-01 11:07:00,
2013-10-01 07:12:00,59.9,58.8,30.13,SE,134,0.0,0.0,96,0.00,,---,0.00,VWS V14.01,2013-10-01 11:12:00,
2013-10-01 07:17:00,60.0,58.9,30.13,SE,134,0.0,0.0,96,0.00,,---,0.00,VWS V14.01,2013-10-01 11:17:00,
2013-10-01 07:22:00,60.0,58.6,30.14,SE,134,0.0,0.0,95,0.00,,---,0.00,VWS V14.01,2013-10-01 11:22:00,
2013-10-01 07:27:00,60.0,58.6,30.14,SE,134,0.0,0.0,95,0.00,,---,0.00,VWS V14.01,2013-10-01 11:27:00,
2013-10-01 07:32:00,60.1,58.7,30.14,SE,134,0.0,0.0,95,0.00,,---,0.00,VWS V14.01,2013-10-01 11:32:00,
2013-10-01 07:37:00,60.1,58.7,30.14,SE,134,0.0,0.0,95,0.00,,---,0.00,VWS V14.01,2013-10-01 11:37:00,
2013-10-01 07:42:00,60.2,58.8,30.14,SE,134,0.0,0.0,95,0.00,,---,0.00,VWS V14.01,2013-10-01 11:42:00,
2013-10-01 07:47:00,60.2,58.8,30.14,SE,134,0.0,0.0,95,0.00,,---,0.00,VWS V14.01,2013-10-01 11:47:00,
2013-10-01 07:52:00,60.3,58.9,30.14,SE,134,0.0,0.0,95,0.00,,---,0.00,VWS V14.01,2013-10-01 11:52:00,
2013-10-01 07:57:00,60.3,58.9,30.14,SE,134,0.0,0.0,95,0.00,,---,0.00,VWS V14.01,2013-10-01 11:57:00,
2013-10-01 08:02:00,60.4,59.3,30.14,SE,134,0.0,0.0,96,0.00,,---,0.00,VWS V14.01,2013-10-01 12:02:00,
2013-10-01 08:07:00,60.5,59.4,30.14,SE,134,0.0,0.0,96,0.00,,---,0.00,VWS V14.01,2013-10-01 12:07:00,
2013-10-01 08:12:00,60.5,59.4,30.15,SE,134,0.0,0.0,96,0.00,,---,0.00,VWS V14.01,2013-10-01 12:12:00,
2013-10-01 08:17:00,60.6,59.5,30.15,SE,134,0.0,0.0,96,0.00,,---,0.00,VWS V14.01,2013-10-01 12:17:00,
2013-10-01 08:22:00,60.7,59.6,30.15,SE,134,0.0,0.0,96,0.00,,---,0.00,VWS V14.01,2013-10-01 12:22:00,
2013-10-01 08:27:00,60.8,59.7,30.15,SE,134,0.0,0.0,96,0.00,,---,0.00,VWS V14.01,2013-10-01 12:27:00,
2013-10-01 08:32:00,60.9,59.5,30.15,SE,134,0.0,0.0,95,0.00,,---,0.00,VWS V14.01,2013-10-01 12:32:00,
2013-10-01 08:37:00,61.0,59.6,30.16,SE,134,0.0,0.0,95,0.00,,---,0.00,VWS V14.01,2013-10-01 12:37:00,
2013-10-01 08:42:00,61.1,60.0,30.15,SE,134,0.0,0.0,96,0.00,,---,0.00,VWS V14.01,2013-10-01 12:42:00,
2013-10-01 08:47:00,61.2,60.0,30.16,SE,134,0.0,0.0,96,0.00,,---,0.00,VWS V14.01,2013-10-01 12:47:00,
2013-10-01 08:52:00,61.3,60.2,30.16,SE,134,0.0,0.0,96,0.00,,---,0.00,VWS V14.01,2013-10-01 12:52:00,
2013-10-01 08:57:00,61.5,60.1,30.16,SE,134,0.0,0.0,95,0.00,,---,0.00,VWS V14.01,2013-10-01 12:57:00,
2013-10-01 09:02:00,61.6,60.2,30.16,SE,134,0.0,0.0,95,0.00,,---,0.00,VWS V14.01,2013-10-01 13:02:00,
2013-10-01 09:07:00,61.8,60.4,30.16,SE,134,0.0,0.0,95,0.00,,---,0.00,VWS V14.01,2013-10-01 13:07:00,
2013-10-01 09:12:00,62.0,60.6,30.16,SE,134,0.0,0.0,95,0.00,,---,0.00,VWS V14.01,2013-10-01 13:12:00,
2013-10-01 09:17:00,62.1,60.7,30.16,SE,134,0.0,0.0,95,0.00,,---,0.00,VWS V14.01,2013-10-01 13:17:00,
2013-10-01 09:22:00,62.2,60.8,30.16,SE,134,0.0,0.0,95,0.00,,---,0.00,VWS V14.01,2013-10-01 13:22:00,
2013-10-01 09:27:00,62.3,60.6,30.16,SE,134,0.0,0.0,94,0.00,,---,0.00,VWS V14.01,2013-10-01 13:27:00,
2013-10-01 09:32:00,62.4,60.7,30.16,SE,134,0.0,0.0,94,0.00,,---,0.00,VWS V14.01,2013-10-01 13:32:00,
2013-10-01 09:37:00,62.5,60.8,30.16,SE,134,0.0,0.0,94,0.00,,---,0.00,VWS V14.01,2013-10-01 13:37:00,
2013-10-01 09:42:00,62.7,61.0,30.16,SE,134,0.0,0.0,94,0.00,,---,0.00,VWS V14.01,2013-10-01 13:42:00,
2013-10-01 09:47:00,62.8,61.0,30.17,SE,134,0.0,0.0,94,0.00,,---,0.00,VWS V14.01,2013-10-01 13:47:00,
2013-10-01 09:52:00,62.9,61.2,30.17,SE,134,0.0,0.0,94,0.00,,---,0.00,VWS V14.01,2013-10-01 13:52:00,
2013-10-01 09:57:00,63.0,61.2,30.17,SE,134,0.0,0.0,94,0.00,,---,0.00,VWS V14.01,2013-10-01 13:57:00,
2013-10-01 10:03:00,63.1,61.3,30.17,SE,134,0.0,0.0,94,0.00,,---,0.00,VWS V14.01,2013-10-01 14:03:00,
2013-10-01 10:08:00,63.2,61.2,30.17,SE,134,0.0,0.0,93,0.00,,---,0.00,VWS V14.01,2013-10-01 14:08:00,
2013-10-01 10:13:00,63.4,61.3,30.17,SE,134,0.0,0.0,93,0.00,,---,0.00,VWS V14.01,2013-10-01 14:13:00,
2013-10-01 10:18:00,63.5,61.1,30.17,SE,134,0.0,0.0,92,0.00,,---,0.00,VWS V14.01,2013-10-01 14:18:00,
2013-10-01 10:23:00,63.8,61.4,30.17,SE,134,0.0,0.0,92,0.00,,---,0.00,VWS V14.01,2013-10-01 14:23:00,
2013-10-01 10:28:00,64.3,61.9,30.17,SE,134,0.0,0.0,92,0.00,,---,0.00,VWS V14.01,2013-10-01 14:28:00,
2013-10-01 10:33:00,64.9,62.2,30.17,SE,134,0.0,0.0,91,0.00,,---,0.00,VWS V14.01,2013-10-01 14:33:00,
2013-10-01 10:38:00,65.7,62.0,30.17,SE,134,0.0,0.0,88,0.00,,---,0.00,VWS V14.01,2013-10-01 14:38:00,
2013-10-01 10:43:00,66.3,62.3,30.17,SE,134,0.0,0.0,87,0.00,,---,0.00,VWS V14.01,2013-10-01 14:43:00,
2013-10-01 10:48:00,66.9,62.6,30.17,SSE,150,0.0,0.0,86,0.00,,---,0.00,VWS V14.01,2013-10-01 14:48:00,
2013-10-01 10:53:00,67.3,62.6,30.17,SSE,160,0.0,0.0,85,0.00,,---,0.00,VWS V14.01,2013-10-01 14:53:00,
2013-10-01 10:58:00,67.6,62.9,30.17,SSW,195,0.0,0.0,85,0.00,,---,0.00,VWS V14.01,2013-10-01 14:58:00,
2013-10-01 11:03:00,67.7,63.4,30.17,SE,128,0.0,0.0,86,0.00,,---,0.00,VWS V14.01,2013-10-01 15:03:00,
2013-10-01 11:08:00,68.0,63.0,30.17,SE,131,0.0,0.0,84,0.00,,---,0.00,VWS V14.01,2013-10-01 15:08:00,
2013-10-01 11:13:00,68.6,63.2,30.17,SE,137,0.0,0.0,83,0.00,,---,0.00,VWS V14.01,2013-10-01 15:13:00,
2013-10-01 11:18:00,69.0,63.3,30.17,SSW,195,0.0,0.0,82,0.00,,---,0.00,VWS V14.01,2013-10-01 15:18:00,
2013-10-01 11:23:00,69.2,63.5,30.17,SSE,167,0.0,0.0,82,0.00,,---,0.00,VWS V14.01,2013-10-01 15:23:00,
2013-10-01 11:28:00,69.3,63.2,30.17,SSE,163,0.0,0.0,81,0.00,,---,0.00,VWS V14.01,2013-10-01 15:28:00,
2013-10-01 11:33:00,69.2,63.5,30.17,SSW,209,0.0,0.0,82,0.00,,---,0.00,VWS V14.01,2013-10-01 15:33:00,
2013-10-01 11:38:00,69.2,63.8,30.17,SE,139,0.0,0.0,83,0.00,,---,0.00,VWS V14.01,2013-10-01 15:38:00,
2013-10-01 11:43:00,69.2,63.5,30.17,SSW,207,0.0,0.0,82,0.00,,---,0.00,VWS V14.01,2013-10-01 15:43:00,
2013-10-01 11:48:00,69.2,63.8,30.17,SW,219,0.0,0.0,83,0.00,,---,0.00,VWS V14.01,2013-10-01 15:48:00,
2013-10-01 11:53:00,69.4,63.7,30.16,SSW,192,0.0,0.0,82,0.00,,---,0.00,VWS V14.01,2013-10-01 15:53:00,
2013-10-01 11:58:00,70.0,64.6,30.16,East,92,0.0,0.0,83,0.00,,---,0.00,VWS V14.01,2013-10-01 15:58:00,
2013-10-01 12:03:00,70.6,64.8,30.16,ESE,105,0.0,0.0,82,0.00,,---,0.00,VWS V14.01,2013-10-01 16:03:00,
2013-10-01 12:08:00,71.0,65.2,30.16,South,188,0.0,0.0,82,0.00,,---,0.00,VWS V14.01,2013-10-01 16:08:00,
2013-10-01 12:13:00,71.5,65.4,30.16,South,170,0.0,0.0,81,0.00,,---,0.00,VWS V14.01,2013-10-01 16:13:00,
2013-10-01 12:18:00,71.6,64.8,30.16,SE,144,0.0,0.0,79,0.00,,---,0.00,VWS V14.01,2013-10-01 16:18:00,
2013-10-01 12:23:00,72.0,65.5,30.16,East,90,0.0,0.0,80,0.00,,---,0.00,VWS V14.01,2013-10-01 16:23:00,
2013-10-01 12:28:00,72.5,65.6,30.15,SE,127,3.0,4.0,79,0.00,,---,0.00,VWS V14.01,2013-10-01 16:28:00,
2013-10-01 12:31:00,72.5,65.3,30.15,East,86,3.0,4.0,78,0.00,,---,0.00,VWS V14.01,2013-10-01 16:31:00,
2013-10-01 12:36:00,72.7,65.4,30.15,SSW,207,0.0,7.0,78,0.00,,---,0.00,VWS V14.01,2013-10-01 16:36:00,
2013-10-01 12:41:00,73.0,65.4,30.15,SSE,149,1.0,7.0,77,0.00,,---,0.00,VWS V14.01,2013-10-01 16:41:00,
2013-10-01 12:46:00,73.2,65.6,30.15,South,176,2.0,6.0,77,0.00,,---,0.00,VWS V14.01,2013-10-01 16:46:00,
2013-10-01 12:51:00,73.5,66.2,30.15,SW,222,3.0,6.0,78,0.00,,---,0.00,VWS V14.01,2013-10-01 16:51:00,
2013-10-01 12:56:00,73.9,65.9,30.14,SW,236,1.0,3.0,76,0.00,,---,0.00,VWS V14.01,2013-10-01 16:56:00,
2013-10-01 13:01:00,74.3,65.9,30.14,SSW,200,6.0,6.0,75,0.00,,---,0.00,VWS V14.01,2013-10-01 17:01:00,
2013-10-01 13:06:00,74.5,66.4,30.14,SSW,211,4.0,6.0,76,0.00,,---,0.00,VWS V14.01,2013-10-01 17:06:00,
2013-10-01 13:11:00,74.4,65.6,30.14,SSE,147,1.0,6.0,74,0.00,,---,0.00,VWS V14.01,2013-10-01 17:11:00,
2013-10-01 13:16:00,74.3,65.9,30.14,SW,232,5.0,7.0,75,0.00,,---,0.00,VWS V14.01,2013-10-01 17:16:00,
2013-10-01 13:21:00,74.6,66.5,30.13,SSW,202,5.0,7.0,76,0.00,,---,0.00,VWS V14.01,2013-10-01 17:21:00,
2013-10-01 13:26:00,74.8,66.0,30.13,South,181,3.0,6.0,74,0.00,,---,0.00,VWS V14.01,2013-10-01 17:26:00,
2013-10-01 13:31:00,74.7,65.9,30.13,SW,219,4.0,7.0,74,0.00,,---,0.00,VWS V14.01,2013-10-01 17:31:00,
2013-10-01 13:36:00,74.8,66.0,30.13,SSE,165,1.0,5.0,74,0.00,,---,0.00,VWS V14.01,2013-10-01 17:36:00,
2013-10-01 13:41:00,74.9,66.1,30.12,South,172,2.0,2.0,74,0.00,,---,0.00,VWS V14.01,2013-10-01 17:41:00,
2013-10-01 13:46:00,75.0,66.2,30.12,South,183,0.0,7.0,74,0.00,,---,0.00,VWS V14.01,2013-10-01 17:46:00,
2013-10-01 13:51:00,75.6,66.7,30.12,SW,234,1.0,1.0,74,0.00,,---,0.00,VWS V14.01,2013-10-01 17:51:00,
2013-10-01 13:56:00,76.1,66.4,30.12,SW,215,4.0,4.0,72,0.00,,---,0.00,VWS V14.01,2013-10-01 17:56:00,
2013-10-01 14:01:00,76.4,66.7,30.12,SSW,211,3.0,3.0,72,0.00,,---,0.00,VWS V14.01,2013-10-01 18:01:00,
2013-10-01 14:06:00,76.4,66.3,30.11,South,191,0.0,3.0,71,0.00,,---,0.00,VWS V14.01,2013-10-01 18:06:00,
2013-10-01 14:11:00,76.9,66.8,30.11,South,191,1.0,1.0,71,0.00,,---,0.00,VWS V14.01,2013-10-01 18:11:00,
2013-10-01 14:16:00,77.1,66.2,30.11,South,173,2.0,6.0,69,0.00,,---,0.00,VWS V14.01,2013-10-01 18:16:00,
2013-10-01 14:21:00,76.8,65.9,30.10,SSW,205,1.0,2.0,69,0.00,,---,0.00,VWS V14.01,2013-10-01 18:21:00,
2013-10-01 14:26:00,76.9,65.5,30.10,South,179,2.0,4.0,68,0.00,,---,0.00,VWS V14.01,2013-10-01 18:26:00,
2013-10-01 14:31:00,77.0,66.1,30.10,South,179,2.0,2.0,69,0.00,,---,0.00,VWS V14.01,2013-10-01 18:31:00,
2013-10-01 14:37:00,77.4,66.0,30.10,SW,232,2.0,7.0,68,0.00,,---,0.00,VWS V14.01,2013-10-01 18:37:00,
2013-10-01 14:42:00,77.9,66.1,30.10,SW,219,1.0,3.0,67,0.00,,---,0.00,VWS V14.01,2013-10-01 18:42:00,
2013-10-01 14:47:00,78.0,65.7,30.09,South,191,1.0,4.0,66,0.00,,---,0.00,VWS V14.01,2013-10-01 18:47:00,
2013-10-01 14:52:00,78.4,65.7,30.09,South,191,0.0,0.0,65,0.00,,---,0.00,VWS V14.01,2013-10-01 18:52:00,
2013-10-01 14:57:00,78.5,66.6,30.09,South,191,0.0,0.0,67,0.00,,---,0.00,VWS V14.01,2013-10-01 18:57:00,
2013-10-01 15:02:00,78.8,67.4,30.09,South,191,0.0,0.0,68,0.00,,---,0.00,VWS V14.01,2013-10-01 19:02:00,
2013-10-01 15:06:00,79.4,67.5,30.09,SSW,194,1.0,2.0,67,0.00,,---,0.00,VWS V14.01,2013-10-01 19:06:00,
2013-10-01 15:12:00,79.5,65.8,30.08,SSW,208,1.0,4.0,63,0.00,,---,0.00,VWS V14.01,2013-10-01 19:12:00,
2013-10-01 15:17:00,78.8,65.6,30.08,SSW,210,4.0,5.0,64,0.00,,---,0.00,VWS V14.01,2013-10-01 19:17:00,
2013-10-01 15:22:00,78.4,65.7,30.08,SSW,210,0.0,0.0,65,0.00,,---,0.00,VWS V14.01,2013-10-01 19:22:00,
2013-10-01 15:27:00,78.4,66.1,30.08,SSW,210,0.0,0.0,66,0.00,,---,0.00,VWS V14.01,2013-10-01 19:27:00,
2013-10-01 15:32:00,78.5,65.8,30.08,SSW,210,0.0,0.0,65,0.00,,---,0.00,VWS V14.01,2013-10-01 19:32:00,
2013-10-01 15:37:00,78.3,66.4,30.08,East,95,1.0,4.0,67,0.00,,---,0.00,VWS V14.01,2013-10-01 19:37:00,
2013-10-01 15:42:00,78.0,64.8,30.08,East,95,2.0,2.0,64,0.00,,---,0.00,VWS V14.01,2013-10-01 19:42:00,
2013-10-01 15:47:00,77.9,64.8,30.08,ENE,78,0.0,3.0,64,0.00,,---,0.00,VWS V14.01,2013-10-01 19:47:00,
2013-10-01 15:52:00,77.9,64.8,30.08,ENE,74,2.0,2.0,64,0.00,,---,0.00,VWS V14.01,2013-10-01 19:52:00,
2013-10-01 15:57:00,77.9,65.2,30.07,East,82,3.0,5.0,65,0.00,,---,0.00,VWS V14.01,2013-10-01 19:57:00,
2013-10-01 16:02:00,77.9,65.2,30.07,ESE,117,3.0,5.0,65,0.00,,---,0.00,VWS V14.01,2013-10-01 20:02:00,
2013-10-01 16:07:00,77.8,65.5,30.07,ESE,106,3.0,5.0,66,0.00,,---,0.00,VWS V14.01,2013-10-01 20:07:00,
2013-10-01 16:12:00,77.8,64.7,30.07,South,182,0.0,2.0,64,0.00,,---,0.00,VWS V14.01,2013-10-01 20:12:00,
2013-10-01 16:17:00,77.9,65.6,30.07,SSW,195,0.0,3.0,66,0.00,,---,0.00,VWS V14.01,2013-10-01 20:17:00,
2013-10-01 16:22:00,78.1,64.9,30.07,SW,214,2.0,3.0,64,0.00,,---,0.00,VWS V14.01,2013-10-01 20:22:00,
2013-10-01 16:27:00,78.3,66.0,30.07,SW,214,1.0,3.0,66,0.00,,---,0.00,VWS V14.01,2013-10-01 20:27:00,
2013-10-01 16:32:00,78.4,64.8,30.06,SW,214,0.0,3.0,63,0.00,,---,0.00,VWS V14.01,2013-10-01 20:32:00,
2013-10-01 16:37:00,78.4,65.2,30.06,SW,214,1.0,3.0,64,0.00,,---,0.00,VWS V14.01,2013-10-01 20:37:00,
2013-10-01 16:42:00,78.4,64.8,30.06,SW,214,0.0,1.0,63,0.00,,---,0.00,VWS V14.01,2013-10-01 20:42:00,
2013-10-01 16:47:00,78.5,65.3,30.07,WSW,246,1.0,2.0,64,0.00,,---,0.00,VWS V14.01,2013-10-01 20:47:00,
2013-10-01 16:52:00,78.5,65.3,30.07,WSW,246,0.0,0.0,64,0.00,,---,0.00,VWS V14.01,2013-10-01 20:52:00,
2013-10-01 16:57:00,78.5,65.3,30.06,North,355,1.0,2.0,64,0.00,,---,0.00,VWS V14.01,2013-10-01 20:57:00,
2013-10-01 17:02:00,78.6,65.0,30.06,WNW,284,0.0,0.0,63,0.00,,---,0.00,VWS V14.01,2013-10-01 21:02:00,
2013-10-01 17:07:00,78.7,65.1,30.06,WNW,284,0.0,1.0,63,0.00,,---,0.00,VWS V14.01,2013-10-01 21:07:00,
2013-10-01 17:12:00,78.8,64.7,30.06,SSW,213,2.0,2.0,62,0.00,,---,0.00,VWS V14.01,2013-10-01 21:12:00,
2013-10-01 17:17:00,78.9,64.3,30.06,SSW,213,0.0,2.0,61,0.00,,---,0.00,VWS V14.01,2013-10-01 21:17:00,
2013-10-01 17:22:00,78.9,64.8,30.06,SSW,213,0.0,0.0,62,0.00,,---,0.00,VWS V14.01,2013-10-01 21:22:00,
2013-10-01 17:27:00,78.8,66.5,30.06,SSW,213,0.0,0.0,66,0.00,,---,0.00,VWS V14.01,2013-10-01 21:27:00,
2013-10-01 17:33:00,78.7,66.4,30.06,SSW,213,0.0,0.0,66,0.00,,---,0.00,VWS V14.01,2013-10-01 21:33:00,
2013-10-01 17:38:00,78.7,67.3,30.06,SSW,213,0.0,0.0,68,0.00,,---,0.00,VWS V14.01,2013-10-01 21:38:00,
2013-10-01 17:43:00,78.6,67.2,30.07,SSW,213,0.0,0.0,68,0.00,,---,0.00,VWS V14.01,2013-10-01 21:43:00,
2013-10-01 17:48:00,78.6,67.6,30.07,SSW,213,0.0,0.0,69,0.00,,---,0.00,VWS V14.01,2013-10-01 21:48:00,
2013-10-01 17:53:00,78.4,68.2,30.07,SSW,213,0.0,0.0,71,0.00,,---,0.00,VWS V14.01,2013-10-01 21:53:00,
2013-10-01 17:58:00,78.2,68.8,30.07,SSW,213,0.0,0.0,73,0.00,,---,0.00,VWS V14.01,2013-10-01 21:58:00,
2013-10-01 18:03:00,77.9,68.9,30.07,SSW,213,0.0,0.0,74,0.00,,---,0.00,VWS V14.01,2013-10-01 22:03:00,
2013-10-01 18:08:00,77.6,68.3,30.07,SSW,213,0.0,0.0,73,0.00,,---,0.00,VWS V14.01,2013-10-01 22:08:00,
2013-10-01 18:13:00,77.5,69.3,30.07,SSW,213,0.0,0.0,76,0.00,,---,0.00,VWS V14.01,2013-10-01 22:13:00,
2013-10-01 18:18:00,77.1,67.8,30.07,SSW,213,0.0,0.0,73,0.00,,---,0.00,VWS V14.01,2013-10-01 22:18:00,
2013-10-01 18:23:00,76.9,68.0,30.07,SSW,213,0.0,0.0,74,0.00,,---,0.00,VWS V14.01,2013-10-01 22:23:00,
2013-10-01 18:28:00,76.7,68.6,30.07,SSW,213,0.0,0.0,76,0.00,,---,0.00,VWS V14.01,2013-10-01 22:28:00,
2013-10-01 18:33:00,76.3,68.9,30.07,SSW,213,0.0,0.0,78,0.00,,---,0.00,VWS V14.01,2013-10-01 22:33:00,
2013-10-01 18:38:00,76.0,69.0,30.07,SSW,213,0.0,0.0,79,0.00,,---,0.00,VWS V14.01,2013-10-01 22:38:00,
2013-10-01 18:43:00,75.6,69.4,30.07,SSW,213,0.0,0.0,81,0.00,,---,0.00,VWS V14.01,2013-10-01 22:43:00,
2013-10-01 18:48:00,75.2,69.3,30.07,SSW,213,0.0,0.0,82,0.00,,---,0.00,VWS V14.01,2013-10-01 22:48:00,
2013-10-01 18:53:00,74.8,69.3,30.07,SSW,213,0.0,0.0,83,0.00,,---,0.00,VWS V14.01,2013-10-01 22:53:00,
2013-10-01 18:58:00,74.4,69.3,30.07,SSW,213,0.0,0.0,84,0.00,,---,0.00,VWS V14.01,2013-10-01 22:58:00,
2013-10-01 19:03:00,74.0,68.9,30.07,SSW,213,0.0,0.0,84,0.00,,---,0.00,VWS V14.01,2013-10-01 23:03:00,
2013-10-01 19:08:00,73.5,68.4,30.07,SSW,213,0.0,0.0,84,0.00,,---,0.00,VWS V14.01,2013-10-01 23:08:00,
2013-10-01 19:13:00,73.0,68.2,30.07,SSW,213,0.0,0.0,85,0.00,,---,0.00,VWS V14.01,2013-10-01 23:13:00,
2013-10-01 19:18:00,72.7,68.3,30.08,SSW,213,0.0,0.0,86,0.00,,---,0.00,VWS V14.01,2013-10-01 23:18:00,
2013-10-01 19:20:00,72.5,68.1,30.08,SSW,213,0.0,0.0,86,0.00,,---,0.00,VWS V14.01,2013-10-01 23:20:00,
2013-10-01 19:25:00,72.2,67.8,30.08,SSW,213,0.0,0.0,86,0.00,,---,0.00,VWS V14.01,2013-10-01 23:25:00,
2013-10-01 19:30:00,71.8,67.4,30.08,SSW,213,0.0,0.0,86,0.00,,---,0.00,VWS V14.01,2013-10-01 23:30:00,
2013-10-01 19:35:00,71.5,67.4,30.08,SSW,213,0.0,0.0,87,0.00,,---,0.00,VWS V14.01,2013-10-01 23:35:00,
2013-10-01 19:40:00,71.3,67.2,30.08,SSW,213,0.0,0.0,87,0.00,,---,0.00,VWS V14.01,2013-10-01 23:40:00,
2013-10-01 19:45:00,71.0,66.9,30.08,SSW,213,0.0,0.0,87,0.00,,---,0.00,VWS V14.01,2013-10-01 23:45:00,
2013-10-01 19:50:00,70.8,66.7,30.08,SSW,213,0.0,0.0,87,0.00,,---,0.00,VWS V14.01,2013-10-01 23:50:00,
2013-10-01 19:55:00,70.5,66.8,30.08,SSW,213,0.0,0.0,88,0.00,,---,0.00,VWS V14.01,2013-10-01 23:55:00,
2013-10-01 20:00:00,70.3,66.6,30.08,SSW,213,0.0,0.0,88,0.00,,---,0.00,VWS V14.01,2013-10-02 00:00:00,
2013-10-01 20:05:00,70.1,66.4,30.08,SSW,213,0.0,0.0,88,0.00,,---,0.00,VWS V14.01,2013-10-02 00:05:00,
2013-10-01 20:10:00,69.7,66.0,30.08,SSW,213,0.0,0.0,88,0.00,,---,0.00,VWS V14.01,2013-10-02 00:10:00,
2013-10-01 20:15:00,69.5,65.8,30.08,SSW,213,0.0,0.0,88,0.00,,---,0.00,VWS V14.01,2013-10-02 00:15:00,
2013-10-01 20:16:00,69.4,66.0,30.08,SSW,213,0.0,0.0,89,0.00,,---,0.00,VWS V14.01,2013-10-02 00:16:00,
2013-10-01 20:21:00,69.3,65.9,30.08,SSW,213,0.0,0.0,89,0.00,,---,0.00,VWS V14.01,2013-10-02 00:21:00,
2013-10-01 20:26:00,69.0,65.6,30.09,SSW,213,0.0,0.0,89,0.00,,---,0.00,VWS V14.01,2013-10-02 00:26:00,
2013-10-01 20:31:00,68.8,65.8,30.09,SSW,213,0.0,0.0,90,0.00,,---,0.00,VWS V14.01,2013-10-02 00:31:00,
2013-10-01 20:36:00,68.6,65.6,30.09,SSW,213,0.0,0.0,90,0.00,,---,0.00,VWS V14.01,2013-10-02 00:36:00,
2013-10-01 20:41:00,68.4,65.4,30.09,SSW,213,0.0,0.0,90,0.00,,---,0.00,VWS V14.01,2013-10-02 00:41:00,
2013-10-01 20:46:00,68.2,65.5,30.09,SSW,213,0.0,0.0,91,0.00,,---,0.00,VWS V14.01,2013-10-02 00:46:00,
2013-10-01 20:51:00,68.0,65.3,30.09,SSW,213,0.0,0.0,91,0.00,,---,0.00,VWS V14.01,2013-10-02 00:51:00,
2013-10-01 20:56:00,67.9,65.2,30.09,SSW,213,0.0,0.0,91,0.00,,---,0.00,VWS V14.01,2013-10-02 00:56:00,
2013-10-01 21:01:00,67.7,65.0,30.10,SSW,213,0.0,0.0,91,0.00,,---,0.00,VWS V14.01,2013-10-02 01:01:00,
2013-10-01 21:06:00,67.6,65.2,30.10,SSW,213,0.0,0.0,92,0.00,,---,0.00,VWS V14.01,2013-10-02 01:06:00,
2013-10-01 21:11:00,67.4,64.7,30.10,SSW,213,0.0,0.0,91,0.00,,---,0.00,VWS V14.01,2013-10-02 01:11:00,
2013-10-01 21:16:00,67.3,64.9,30.10,SSW,213,0.0,0.0,92,0.00,,---,0.00,VWS V14.01,2013-10-02 01:16:00,
2013-10-01 21:21:00,67.2,64.8,30.11,SSW,213,0.0,0.0,92,0.00,,---,0.00,VWS V14.01,2013-10-02 01:21:00,
2013-10-01 21:26:00,67.1,64.7,30.11,SSW,213,0.0,0.0,92,0.00,,---,0.00,VWS V14.01,2013-10-02 01:26:00,
2013-10-01 21:31:00,67.0,64.6,30.11,SSW,213,0.0,0.0,92,0.00,,---,0.00,VWS V14.01,2013-10-02 01:31:00,
2013-10-01 21:36:00,67.0,64.9,30.11,SSW,213,0.0,0.0,93,0.00,,---,0.00,VWS V14.01,2013-10-02 01:36:00,
2013-10-01 21:41:00,66.9,64.8,30.11,SSW,213,0.0,0.0,93,0.00,,---,0.00,VWS V14.01,2013-10-02 01:41:00,
2013-10-01 21:46:00,66.9,64.8,30.11,SSW,213,0.0,0.0,93,0.00,,---,0.00,VWS V14.01,2013-10-02 01:46:00,
2013-10-01 21:51:00,66.8,64.7,30.11,SSW,213,0.0,0.0,93,0.00,,---,0.00,VWS V14.01,2013-10-02 01:51:00,
2013-10-01 21:56:00,66.7,64.6,30.11,SSW,213,0.0,0.0,93,0.00,,---,0.00,VWS V14.01,2013-10-02 01:56:00,
2013-10-01 22:01:00,66.7,64.6,30.11,SSW,213,0.0,0.0,93,0.00,,---,0.00,VWS V14.01,2013-10-02 02:01:00,
2013-10-01 22:06:00,66.6,64.5,30.12,SSW,213,0.0,0.0,93,0.00,,---,0.00,VWS V14.01,2013-10-02 02:06:00,
2013-10-01 22:11:00,66.5,64.4,30.11,SSW,213,0.0,0.0,93,0.00,,---,0.00,VWS V14.01,2013-10-02 02:11:00,
2013-10-01 22:16:00,66.3,64.2,30.11,SSW,213,0.0,0.0,93,0.00,,---,0.00,VWS V14.01,2013-10-02 02:16:00,
2013-10-01 22:21:00,66.1,64.0,30.12,SSW,213,0.0,0.0,93,0.00,,---,0.00,VWS V14.01,2013-10-02 02:21:00,
2013-10-01 22:26:00,65.9,63.8,30.12,SSW,213,0.0,0.0,93,0.00,,---,0.00,VWS V14.01,2013-10-02 02:26:00,
2013-10-01 22:31:00,65.8,63.7,30.12,SSW,213,0.0,0.0,93,0.00,,---,0.00,VWS V14.01,2013-10-02 02:31:00,
2013-10-01 22:36:00,65.8,63.7,30.12,SSW,213,0.0,0.0,93,0.00,,---,0.00,VWS V14.01,2013-10-02 02:36:00,
2013-10-01 22:41:00,65.7,63.9,30.12,SSW,213,0.0,0.0,94,0.00,,---,0.00,VWS V14.01,2013-10-02 02:41:00,
2013-10-01 22:46:00,65.6,63.8,30.12,SSW,213,0.0,0.0,94,0.00,,---,0.00,VWS V14.01,2013-10-02 02:46:00,
2013-10-01 22:51:00,65.6,63.8,30.12,SSW,213,0.0,0.0,94,0.00,,---,0.00,VWS V14.01,2013-10-02 02:51:00,
2013-10-01 22:56:00,65.4,63.6,30.12,SSW,213,0.0,0.0,94,0.00,,---,0.00,VWS V14.01,2013-10-02 02:56:00,
2013-10-01 23:01:00,65.4,63.6,30.12,SSW,213,0.0,0.0,94,0.00,,---,0.00,VWS V14.01,2013-10-02 03:01:00,
2013-10-01 23:06:00,65.2,63.4,30.12,SSW,213,0.0,0.0,94,0.00,,---,0.00,VWS V14.01,2013-10-02 03:06:00,
2013-10-01 23:11:00,65.2,63.4,30.12,SSW,213,0.0,0.0,94,0.00,,---,0.00,VWS V14.01,2013-10-02 03:11:00,
2013-10-01 23:16:00,65.1,63.3,30.12,SSW,213,0.0,0.0,94,0.00,,---,0.00,VWS V14.01,2013-10-02 03:16:00,
2013-10-01 23:21:00,65.0,63.2,30.12,SSW,213,0.0,0.0,94,0.00,,---,0.00,VWS V14.01,2013-10-02 03:21:00,
2013-10-01 23:26:00,64.8,63.0,30.12,SSW,213,0.0,0.0,94,0.00,,---,0.00,VWS V14.01,2013-10-02 03:26:00,
2013-10-01 23:31:00,64.7,62.9,30.12,SSW,213,0.0,0.0,94,0.00,,---,0.00,VWS V14.01,2013-10-02 03:31:00,
2013-10-01 23:36:00,64.7,62.9,30.12,SSW,213,0.0,0.0,94,0.00,,---,0.00,VWS V14.01,2013-10-02 03:36:00,
2013-10-01 23:41:00,64.6,62.8,30.12,SSW,213,0.0,0.0,94,0.00,,---,0.00,VWS V14.01,2013-10-02 03:41:00,
2013-10-01 23:46:00,64.6,62.8,30.12,SSW,213,0.0,0.0,94,0.00,,---,0.00,VWS V14.01,2013-10-02 03:46:00,
2013-10-01 23:51:00,64.5,62.7,30.12,SSW,213,0.0,0.0,94,0.00,,---,0.00,VWS V14.01,2013-10-02 03:51:00,
2013-10-01 23:56:00,64.4,62.6,30.12,SSW,213,0.0,0.0,94,0.00,,---,0.00,VWS V14.01,2013-10-02 03:56:00,